createdAt,value
2023-03-24T00:13:15.165Z,16.92
2023-03-24T00:18:46.862Z,17.17
2023-03-24T00:24:14.693Z,15.48
2023-03-24T00:29:28.158Z,16.95
2023-03-24T00:34:47.124Z,18.50
2023-03-24T00:39:54.889Z,17.52
2023-03-24T00:46:11.502Z,14.52
2023-03-24T01:02:43.914Z,15.90
2023-03-24T01:07:46.128Z,14.40
2023-03-24T01:13:12.312Z,12.60
2023-03-24T01:18:42.519Z,15.05
2023-03-24T01:23:54.403Z,13.25
2023-03-24T01:29:01.671Z,13.30
2023-03-24T01:34:09.252Z,13.48
2023-03-24T01:44:36.802Z,11.82
2023-03-24T01:49:43.263Z,9.88
2023-03-24T01:55:01.750Z,10.07
2023-03-24T02:05:46.128Z,13.90
2023-03-24T02:10:48.902Z,17.13
2023-03-24T02:16:12.676Z,13.65
2023-03-24T02:22:03.794Z,11.93
2023-03-24T02:27:38.793Z,8.07
2023-03-24T02:33:17.701Z,9.68
2023-03-24T02:38:46.233Z,6.00
2023-03-24T02:44:47.539Z,11.15
2023-03-24T02:50:45.135Z,8.73
2023-03-24T02:55:58.962Z,13.95
2023-03-24T03:01:33.126Z,10.25
2023-03-24T03:06:58.864Z,12.82
2023-03-24T03:12:20.793Z,11.07
2023-03-24T03:17:43.123Z,12.57
2023-03-24T03:23:38.336Z,14.13
2023-03-24T03:28:44.498Z,15.68
2023-03-24T03:34:26.060Z,21.45
2023-03-24T03:39:31.263Z,21.67
2023-03-24T03:44:58.241Z,15.52
2023-03-24T03:50:18.623Z,18.08
2023-03-24T03:55:20.502Z,18.20
2023-03-24T04:00:24.781Z,15.32
2023-03-24T04:05:36.414Z,19.98
2023-03-24T04:11:15.911Z,18.95
2023-03-24T04:17:14.196Z,13.30
2023-03-24T04:22:44.150Z,18.53
2023-03-24T04:28:10.322Z,15.55
2023-03-24T04:33:31.986Z,14.98
2023-03-24T04:38:41.697Z,18.55
2023-03-24T04:43:45.024Z,23.90
2023-03-24T04:49:08.194Z,18.73
2023-03-24T04:54:09.913Z,17.00
2023-03-24T04:59:28.356Z,16.10
2023-03-24T05:04:37.307Z,15.43
2023-03-24T05:09:54.080Z,27.90
2023-03-24T05:15:09.341Z,14.65
2023-03-24T05:26:09.222Z,27.27
2023-03-24T05:32:46.122Z,23.42
2023-03-24T05:38:02.697Z,22.63
2023-03-24T05:43:04.423Z,24.98
2023-03-24T05:48:12.113Z,30.50
2023-03-24T06:03:53.228Z,27.30
2023-03-24T06:08:54.995Z,37.78
2023-03-24T06:14:22.601Z,44.25
2023-03-24T06:19:24.793Z,28.93
2023-03-24T06:24:51.142Z,34.15
2023-03-24T06:30:12.742Z,29.15
2023-03-24T06:35:15.832Z,32.85
2023-03-24T06:40:31.356Z,40.67
2023-03-24T07:29:34.276Z,44.67
2023-03-24T07:35:01.538Z,43.70
2023-03-24T07:46:05.830Z,50.97
2023-03-24T07:51:13.352Z,34.22
2023-03-24T07:56:16.031Z,38.53
2023-03-24T08:12:02.160Z,37.90
2023-03-24T08:17:53.270Z,48.38
2023-03-24T08:22:55.657Z,35.20
2023-03-24T08:27:57.258Z,40.10
2023-03-24T08:33:01.995Z,39.15
2023-03-24T08:38:12.071Z,41.38
2023-03-24T08:43:36.655Z,35.55
2023-03-24T08:48:57.669Z,33.25
2023-03-24T08:54:32.072Z,42.88
2023-03-24T09:06:07.628Z,34.97
2023-03-24T09:11:33.183Z,34.38
2023-03-24T09:17:00.126Z,31.20
2023-03-24T09:22:27.509Z,33.08
2023-03-24T09:27:29.924Z,36.87
2023-03-24T09:32:33.979Z,27.75
2023-03-24T09:37:52.513Z,32.35
2023-03-24T09:43:36.009Z,32.22
2023-03-24T09:54:28.354Z,24.67
2023-03-24T09:59:36.364Z,30.48
2023-03-24T10:04:47.633Z,30.02
2023-03-24T10:10:45.814Z,20.67
2023-03-24T10:16:14.536Z,29.13
2023-03-24T10:21:41.472Z,34.03
2023-03-24T10:27:10.496Z,24.00
2023-03-24T10:33:02.494Z,26.17
2023-03-24T10:38:18.613Z,19.83
2023-03-24T10:43:25.116Z,28.45
2023-03-24T11:00:40.021Z,21.80
2023-03-24T11:12:38.162Z,22.70
2023-03-24T11:18:30.354Z,24.13
2023-03-24T11:30:08.362Z,26.42
2023-03-24T12:11:21.487Z,19.17
2023-03-24T12:17:07.333Z,21.25
2023-03-24T12:23:11.289Z,27.38
2023-03-24T12:28:42.741Z,22.10
2023-03-24T12:58:41.750Z,14.35
2023-03-24T13:04:03.256Z,21.02
2023-03-24T13:09:55.981Z,13.50
2023-03-24T13:15:24.784Z,27.05
2023-03-24T13:21:03.386Z,13.95
2023-03-24T13:32:26.439Z,21.15
2023-03-24T13:37:57.582Z,20.13
2023-03-24T13:43:22.207Z,22.80
2023-03-24T13:48:33.461Z,19.88
2023-03-24T13:53:46.026Z,25.58
2023-03-24T13:59:37.398Z,18.63
2023-03-24T14:04:46.943Z,19.75
2023-03-24T14:10:11.563Z,20.17
2023-03-24T14:15:25.438Z,25.90
2023-03-24T14:20:44.323Z,21.45
2023-03-24T14:26:19.160Z,20.63
2023-03-24T14:31:36.584Z,19.63
2023-03-24T14:36:43.715Z,21.38
2023-03-24T14:41:47.173Z,26.02
2023-03-24T14:46:50.387Z,20.67
2023-03-24T14:51:55.002Z,13.98
2023-03-24T14:56:58.619Z,21.75
2023-03-24T15:02:15.869Z,20.30
2023-03-24T15:07:17.423Z,20.80
2023-03-24T15:12:20.692Z,20.98
2023-03-24T15:17:24.049Z,22.55
2023-03-24T15:22:25.641Z,25.13
2023-03-24T15:27:29.985Z,21.50
2023-03-24T15:32:38.835Z,25.13
2023-03-24T15:37:48.148Z,18.75
2023-03-24T15:42:50.635Z,20.75
2023-03-24T15:48:22.871Z,23.02
2023-03-24T15:53:30.615Z,22.50
2023-03-24T15:58:32.405Z,21.33
2023-03-24T16:03:35.037Z,18.10
2023-03-24T16:14:46.322Z,15.00
2023-03-24T16:19:47.972Z,18.58
2023-03-24T16:24:49.643Z,20.08
2023-03-24T16:29:51.366Z,22.88
2023-03-24T16:35:04.662Z,19.95
2023-03-24T16:46:27.012Z,14.43
2023-03-24T16:51:29.762Z,17.33
2023-03-24T16:56:39.524Z,17.27
2023-03-24T17:02:03.277Z,17.67
2023-03-24T17:07:20.381Z,18.08
2023-03-24T17:12:21.955Z,17.87
2023-03-24T17:17:28.232Z,17.17
2023-03-24T17:22:43.845Z,18.15
2023-03-24T17:28:17.168Z,13.32
2023-03-24T17:33:18.822Z,12.82
2023-03-24T17:38:26.034Z,14.43
2023-03-24T17:43:33.931Z,15.20
2023-03-24T17:48:37.180Z,13.40
2023-03-24T17:53:38.848Z,19.48
2023-03-24T17:58:47.549Z,16.23
2023-03-24T18:04:36.972Z,17.40
2023-03-24T18:09:39.029Z,15.82
2023-03-24T18:20:29.120Z,11.40
2023-03-24T18:25:46.056Z,14.93
2023-03-24T18:36:42.973Z,15.00
2023-03-24T18:41:44.697Z,12.70
2023-03-24T18:46:46.377Z,10.10
2023-03-24T18:51:51.595Z,12.43
2023-03-24T18:57:04.794Z,17.15
2023-03-24T19:02:17.950Z,18.65
2023-03-24T19:12:51.705Z,22.98
2023-03-24T19:18:03.709Z,22.35
2023-03-24T19:23:12.043Z,21.13
2023-03-24T19:28:22.698Z,15.93
2023-03-24T19:39:08.517Z,23.83
2023-03-24T19:44:10.388Z,21.98
2023-03-24T19:49:12.051Z,31.63
2023-03-24T19:54:13.799Z,26.52
2023-03-24T19:59:30.341Z,25.50
2023-03-24T20:04:41.418Z,25.58
2023-03-24T20:09:46.462Z,28.73
2023-03-24T20:14:48.146Z,21.92
2023-03-24T20:19:49.901Z,25.65
2023-03-24T20:25:03.805Z,26.48
2023-03-24T20:30:12.341Z,23.08
2023-03-24T20:35:33.400Z,24.33
2023-03-24T20:40:36.226Z,25.50
2023-03-24T20:45:47.486Z,30.02
2023-03-24T20:50:53.450Z,25.20
2023-03-24T20:56:19.099Z,30.80
2023-03-24T21:01:36.047Z,20.15
2023-03-24T21:06:49.355Z,25.00
2023-03-24T21:11:51.400Z,25.48
2023-03-24T21:16:53.353Z,26.17
2023-03-24T21:22:18.512Z,20.77
2023-03-24T21:27:21.323Z,24.33
2023-03-24T21:32:23.684Z,23.73
2023-03-24T21:37:25.600Z,21.90
2023-03-24T21:42:30.703Z,27.63
2023-03-24T21:47:49.152Z,25.50
2023-03-24T21:53:00.122Z,24.75
2023-03-24T21:58:01.873Z,27.50
2023-03-24T22:03:03.874Z,33.50
2023-03-24T22:08:22.470Z,34.08
2023-03-24T22:13:25.958Z,33.78
2023-03-24T22:18:30.161Z,29.38
2023-03-24T22:23:33.619Z,35.00
2023-03-24T22:28:38.936Z,26.15
2023-03-24T22:33:42.435Z,23.08
2023-03-24T22:38:46.993Z,22.90
2023-03-24T22:43:53.505Z,26.40
2023-03-24T22:49:05.766Z,25.13
2023-03-24T22:54:07.580Z,23.90
2023-03-24T22:59:09.395Z,27.38
2023-03-24T23:04:11.407Z,23.13
2023-03-24T23:09:15.790Z,23.38
2023-03-24T23:14:18.530Z,27.63
2023-03-24T23:19:35.372Z,31.08
2023-03-24T23:24:39.669Z,36.25
2023-03-24T23:29:42.015Z,26.95
2023-03-24T23:34:46.204Z,36.22
2023-03-24T23:39:50.382Z,30.45
2023-03-24T23:45:06.900Z,31.00
2023-03-24T23:50:09.652Z,29.55
2023-03-24T23:55:36.764Z,44.45
